Sao Jorge — CSIA — position and weather

sailwx.info

Track history (hours):
 
Tides and Currents Weather Stations Pressure Air Temp Water Temp Dewpoint Dewpoint Depression Visibility Wind Speed Wind Dir Waves Ship Positions

Sao Jorge

Last reported at 2016-Dec-03 11:33 UTC. Time now 2016-Dec-03 13:45 UTC.
Position N 38°41' W 009°09'.

Length 59 m; draft 24.8 m.

Type: Passenger vessel. MMSI: 263701790.

Date/timePositionNaut miles runAvg speedWind from/ knotsBaromVisibWave heightAir tempDewpointWater temp
2016-Dec-03 11:33N 38°41' W 009°09'0 0.0
2016-Dec-03 10:33N 38°41' W 009°09'0 0.0
2016-Dec-03 09:33N 38°41' W 009°09'0 0.0
2016-Dec-03 08:28N 38°41' W 009°09'0 0.0
2016-Dec-03 07:33N 38°41' W 009°09'0 0.0
2016-Dec-02 19:34N 38°41' W 009°09'0 0.0
2016-Dec-02 18:33N 38°41' W 009°09'0 0.0
2016-Dec-02 17:33N 38°41' W 009°09'0 0.0
2016-Dec-02 14:18N 38°41' W 009°09'3 3.6
2016-Dec-02 13:33N 38°41' W 009°12'0 0.2
2016-Dec-02 12:33N 38°41' W 009°12'0 0.2
2016-Dec-02 11:33N 38°42' W 009°12'3 2.5
2016-Dec-02 10:33N 38°41' W 009°09'0 0.0
2016-Dec-02 09:33N 38°41' W 009°09'0 0.0
2016-Dec-02 08:33N 38°41' W 009°09'0 0.0
2016-Dec-02 07:33N 38°41' W 009°09'0 0.0
2016-Dec-02 06:33N 38°41' W 009°09'0 0.0
2016-Dec-01 15:33N 38°41' W 009°09'0 0.0
2016-Dec-01 14:33N 38°41' W 009°09'0 0.0
2016-Dec-01 09:28N 38°41' W 009°09'0 0.0
2016-Dec-01 08:33N 38°41' W 009°09'0 0.0
2016-Nov-30 19:29N 38°41' W 009°09'1 1.0
2016-Nov-30 18:33N 38°42' W 009°09'3 3.4
2016-Nov-30 17:33N 38°40' W 009°06'3 0.8
2016-Nov-30 14:17N 38°41' W 009°09'0 0.0
2016-Nov-30 10:11N 38°41' W 009°09'1 1.2
2016-Nov-30 09:33N 38°41' W 009°08'1 1.0
2016-Nov-30 08:33N 38°42' W 009°08'1 0.5
2016-Nov-30 07:33N 38°42' W 009°09'1 1.0
2016-Nov-30 06:33N 38°41' W 009°08'0 0.3
2016-Nov-30 05:33N 38°41' W 009°09'0 0.0
2016-Nov-29 20:11N 38°41' W 009°09'0 0.1
2016-Nov-29 19:33N 38°41' W 009°09'0 0.1
2016-Nov-29 18:33N 38°41' W 009°09'2 2.4
2016-Nov-29 17:32N 38°42' W 009°12'0 0.0
2016-Nov-29 16:33N 38°42' W 009°12'0 0.1
2016-Nov-29 15:33N 38°42' W 009°12'1 1.1
2016-Nov-29 14:32N 38°41' W 009°12'1 1.0
2016-Nov-29 13:32N 38°42' W 009°12'0 0.3
2016-Nov-29 12:33N 38°41' W 009°12'0 0.3
2016-Nov-29 11:34N 38°42' W 009°12'2 1.8
2016-Nov-29 10:33N 38°40' W 009°14'4 4.0
2016-Nov-29 09:33N 38°41' W 009°09'0 0.0
2016-Nov-29 08:33N 38°41' W 009°09'1 1.0
2016-Nov-29 07:33N 38°42' W 009°09'1 0.9
2016-Nov-29 06:33N 38°41' W 009°09'0 0.0
2016-Nov-28 19:33N 38°41' W 009°09'0 0.0
2016-Nov-28 18:33N 38°41' W 009°09'0 0.0
2016-Nov-28 07:33N 38°41' W 009°09'  
2016-Nov-25 09:12N 38°41' W 009°09'0 0.0
2016-Nov-25 08:33N 38°41' W 009°09'0 0.0
2016-Nov-25 07:33N 38°41' W 009°09'0 0.0
2016-Nov-25 06:33N 38°41' W 009°09'0 0.0
2016-Nov-24 11:18N 38°41' W 009°09'0 0.0
2016-Nov-24 10:33N 38°41' W 009°09'0 0.0
2016-Nov-24 09:32N 38°41' W 009°09'0 0.0
2016-Nov-24 08:33N 38°41' W 009°09'0 0.0
2016-Nov-24 07:33N 38°41' W 009°09'0 0.0
2016-Nov-24 06:33N 38°41' W 009°09'  
Track history (hours):
 
Tides and Currents Weather Stations Pressure Air Temp Water Temp Dewpoint Dewpoint Depression Visibility Wind Speed Wind Dir Waves Ship Positions

Sao Jorge

Last reported at 2016-Dec-03 11:33 UTC. Time now 2016-Dec-03 13:45 UTC.
Position N 38°41' W 009°09'.

Length 59 m; draft 24.8 m.

Type: Passenger vessel. MMSI: 263701790.

Date/timePositionNaut miles runAvg speedWind from/ knotsBaromVisibWave heightAir tempDewpointWater temp
2016-Dec-03 11:33N 38°41' W 009°09'0 0.0
2016-Dec-03 10:33N 38°41' W 009°09'0 0.0
2016-Dec-03 09:33N 38°41' W 009°09'0 0.0
2016-Dec-03 08:28N 38°41' W 009°09'0 0.0
2016-Dec-03 07:33N 38°41' W 009°09'0 0.0
2016-Dec-02 19:34N 38°41' W 009°09'0 0.0
2016-Dec-02 18:33N 38°41' W 009°09'0 0.0
2016-Dec-02 17:33N 38°41' W 009°09'0 0.0
2016-Dec-02 14:18N 38°41' W 009°09'3 3.6
2016-Dec-02 13:33N 38°41' W 009°12'0 0.2
2016-Dec-02 12:33N 38°41' W 009°12'0 0.2
2016-Dec-02 11:33N 38°42' W 009°12'3 2.5
2016-Dec-02 10:33N 38°41' W 009°09'0 0.0
2016-Dec-02 09:33N 38°41' W 009°09'0 0.0
2016-Dec-02 08:33N 38°41' W 009°09'0 0.0
2016-Dec-02 07:33N 38°41' W 009°09'0 0.0
2016-Dec-02 06:33N 38°41' W 009°09'0 0.0
2016-Dec-01 15:33N 38°41' W 009°09'0 0.0
2016-Dec-01 14:33N 38°41' W 009°09'0 0.0
2016-Dec-01 09:28N 38°41' W 009°09'0 0.0
2016-Dec-01 08:33N 38°41' W 009°09'0 0.0
2016-Nov-30 19:29N 38°41' W 009°09'1 1.0
2016-Nov-30 18:33N 38°42' W 009°09'3 3.4
2016-Nov-30 17:33N 38°40' W 009°06'3 0.8
2016-Nov-30 14:17N 38°41' W 009°09'0 0.0
2016-Nov-30 10:11N 38°41' W 009°09'1 1.2
2016-Nov-30 09:33N 38°41' W 009°08'1 1.0
2016-Nov-30 08:33N 38°42' W 009°08'1 0.5
2016-Nov-30 07:33N 38°42' W 009°09'1 1.0
2016-Nov-30 06:33N 38°41' W 009°08'0 0.3
2016-Nov-30 05:33N 38°41' W 009°09'0 0.0
2016-Nov-29 20:11N 38°41' W 009°09'0 0.1
2016-Nov-29 19:33N 38°41' W 009°09'0 0.1
2016-Nov-29 18:33N 38°41' W 009°09'2 2.4
2016-Nov-29 17:32N 38°42' W 009°12'0 0.0
2016-Nov-29 16:33N 38°42' W 009°12'0 0.1
2016-Nov-29 15:33N 38°42' W 009°12'1 1.1
2016-Nov-29 14:32N 38°41' W 009°12'1 1.0
2016-Nov-29 13:32N 38°42' W 009°12'0 0.3
2016-Nov-29 12:33N 38°41' W 009°12'0 0.3
2016-Nov-29 11:34N 38°42' W 009°12'2 1.8
2016-Nov-29 10:33N 38°40' W 009°14'4 4.0
2016-Nov-29 09:33N 38°41' W 009°09'0 0.0
2016-Nov-29 08:33N 38°41' W 009°09'1 1.0
2016-Nov-29 07:33N 38°42' W 009°09'1 0.9
2016-Nov-29 06:33N 38°41' W 009°09'0 0.0
2016-Nov-28 19:33N 38°41' W 009°09'0 0.0
2016-Nov-28 18:33N 38°41' W 009°09'0 0.0
2016-Nov-28 07:33N 38°41' W 009°09'  
2016-Nov-25 09:12N 38°41' W 009°09'0 0.0
2016-Nov-25 08:33N 38°41' W 009°09'0 0.0
2016-Nov-25 07:33N 38°41' W 009°09'0 0.0
2016-Nov-25 06:33N 38°41' W 009°09'0 0.0
2016-Nov-24 11:18N 38°41' W 009°09'0 0.0
2016-Nov-24 10:33N 38°41' W 009°09'0 0.0
2016-Nov-24 09:32N 38°41' W 009°09'0 0.0
2016-Nov-24 08:33N 38°41' W 009°09'0 0.0
2016-Nov-24 07:33N 38°41' W 009°09'0 0.0
2016-Nov-24 06:33N 38°41' W 009°09'  

Dump ship's entire track history